3 Oak — V7YJ3 — position and weather

sailwx.info

Track history (hours):
 
Tides and Currents Weather Stations Pressure Air Temp Water Temp Dewpoint Dewpoint Depression Visibility Wind Speed Wind Dir Waves Ship Positions

3 Oak

Last reported at 2018-Feb-03 18:06 UTC. Time now 2018-Feb-18 01:37 UTC.
Position N 30°10' W 093°20'.
Warning: this ship's position is 14 days out of date.

Length 125 m; draft 6.8 m.

Type: Cargo ship. MMSI: 538004672.

Date/timePositionNaut miles runAvg speedWind from/ knotsBaromVisibWave heightAir tempDewpointWater temp
2018-Feb-03 18:06N 30°10' W 093°20'0 0.0
2018-Feb-03 18:00N 30°10' W 093°20'0 0.0
2018-Feb-03 17:30N 30°10' W 093°20'0 0.0
2018-Feb-03 17:00N 30°10' W 093°20'0 0.0
2018-Feb-03 16:00N 30°10' W 093°20'0 0.0
2018-Feb-03 15:30N 30°09' W 093°20'0 0.0
2018-Feb-03 15:00N 30°10' W 093°20'0 0.0
2018-Feb-03 14:30N 30°10' W 093°20'0 0.0
2018-Feb-03 14:00N 30°10' W 093°20'0 0.0
2018-Feb-03 13:30N 30°10' W 093°20'0 0.0
2018-Feb-03 13:00N 30°10' W 093°20'0 0.0
2018-Feb-03 12:24N 30°10' W 093°20'0 0.0
2018-Feb-03 12:00N 30°10' W 093°20'0 0.0
2018-Feb-03 11:30N 30°10' W 093°20'0 0.0
2018-Feb-03 11:00N 30°10' W 093°20'0 0.0
2018-Feb-03 10:30N 30°10' W 093°20'0 0.0
2018-Feb-03 10:00N 30°10' W 093°20'0 0.0
2018-Feb-03 09:27N 30°09' W 093°20'0 0.0
2018-Feb-03 09:00N 30°10' W 093°20'0 0.0
2018-Feb-03 08:24N 30°10' W 093°20'0 0.0
2018-Feb-03 08:00N 30°10' W 093°20'0 0.0
2018-Feb-03 06:30N 30°10' W 093°20'0 0.0
2018-Feb-03 06:00N 30°10' W 093°20'0 0.0
2018-Feb-03 05:30N 30°10' W 093°20'0 0.0
2018-Feb-03 05:00N 30°10' W 093°20'0 0.0
2018-Feb-03 04:00N 30°10' W 093°20'0 0.0
2018-Feb-03 03:27N 30°10' W 093°20'0 0.0
2018-Feb-03 02:00N 30°10' W 093°20'0 0.0
2018-Feb-03 01:30N 30°10' W 093°20'0 0.0
2018-Feb-03 01:00N 30°10' W 093°20'0 0.0
2018-Feb-03 00:30N 30°09' W 093°20'1 2.3
2018-Feb-03 00:00N 30°08' W 093°20'3 5.4
2018-Feb-02 23:30N 30°06' W 093°20'4 7.0
2018-Feb-02 23:00N 30°02' W 093°20'3 6.4
2018-Feb-02 22:31N 29°59' W 093°20'4 7.8
2018-Feb-02 22:00N 29°55' W 093°20'4 8.5
2018-Feb-02 21:29N 29°51' W 093°21'4 8.8
2018-Feb-02 21:00N 29°46' W 093°21'72 2.0
2018-Feb-01 08:19N 28°40' W 093°52'1 1.5
2018-Feb-01 07:30N 28°39' W 093°50'3 5.4
2018-Feb-01 06:59N 28°37' W 093°48'3 5.4
2018-Feb-01 06:21N 28°34' W 093°46'2 5.1
2018-Feb-01 06:00N 28°33' W 093°45'2 3.4
2018-Feb-01 05:27N 28°31' W 093°43'0 0.7
2018-Feb-01 04:54N 28°31' W 093°43'0 0.6
2018-Feb-01 04:28N 28°31' W 093°43'2 2.1
2018-Feb-01 03:40N 28°31' W 093°41'2 2.6
2018-Feb-01 02:49N 28°32' W 093°39'0 0.5
2018-Feb-01 02:10N 28°32' W 093°39'0 0.4
2018-Feb-01 02:00N 28°32' W 093°39'0 0.1
2018-Feb-01 01:23N 28°32' W 093°39'0 0.2
2018-Feb-01 00:59N 28°32' W 093°39'2 3.2
2018-Feb-01 00:14N 28°33' W 093°37'3 6.6
2018-Jan-31 23:49N 28°34' W 093°34'1111.8
2018-Jan-31 22:55N 28°36' W 093°22'512.6
2018-Jan-31 22:30N 28°36' W 093°16'  
2018-Jan-27 03:46N 10°19' W 075°37'2 7.2
2018-Jan-27 03:28N 10°19' W 075°35'2 4.1
2018-Jan-27 03:00N 10°18' W 075°33'0 0.2
2018-Jan-27 02:31N 10°18' W 075°33'0 0.1
2018-Jan-27 02:00N 10°18' W 075°33'0 0.1
2018-Jan-27 01:30N 10°18' W 075°33'1 1.5
2018-Jan-27 01:00N 10°18' W 075°32'1 0.9
2018-Jan-27 00:25N 10°17' W 075°33'0 0.0
2018-Jan-26 23:55N 10°17' W 075°33'0 0.0
2018-Jan-26 23:25N 10°17' W 075°33'0 0.0
2018-Jan-26 22:55N 10°17' W 075°33'0 0.0
2018-Jan-26 22:28N 10°17' W 075°33'0 0.0
2018-Jan-26 21:58N 10°17' W 075°33'0 0.0
2018-Jan-26 21:25N 10°17' W 075°33'0 0.0
2018-Jan-26 20:55N 10°17' W 075°33'0 0.0
2018-Jan-26 20:25N 10°17' W 075°33'0 0.0
2018-Jan-26 19:58N 10°17' W 075°33'0 0.0
2018-Jan-26 19:28N 10°17' W 075°33'0 0.0
2018-Jan-26 18:58N 10°17' W 075°33'0 0.0
2018-Jan-26 18:28N 10°17' W 075°33'0 0.0
2018-Jan-26 17:58N 10°17' W 075°33'0 0.0
2018-Jan-26 16:43N 10°17' W 075°33'0 0.0
2018-Jan-26 16:28N 10°17' W 075°33'0 0.0
2018-Jan-26 15:58N 10°17' W 075°33'0 0.0
2018-Jan-26 15:28N 10°17' W 075°33'0 0.0
2018-Jan-26 14:55N 10°17' W 075°33'0 0.0
2018-Jan-26 14:28N 10°17' W 075°33'0 0.0
2018-Jan-26 13:55N 10°17' W 075°33'0 0.0
2018-Jan-26 13:25N 10°17' W 075°33'0 0.0
2018-Jan-26 12:55N 10°17' W 075°33'0 0.0
2018-Jan-26 12:25N 10°17' W 075°33'0 0.0
2018-Jan-26 11:58N 10°17' W 075°33'0 0.0
2018-Jan-26 11:25N 10°17' W 075°33'0 0.0
2018-Jan-26 10:58N 10°17' W 075°33'0 0.0
2018-Jan-26 10:28N 10°17' W 075°33'0 0.0
2018-Jan-26 09:58N 10°17' W 075°33'0 0.0
2018-Jan-26 09:28N 10°17' W 075°33'0 0.0
2018-Jan-26 08:58N 10°17' W 075°33'0 0.0
2018-Jan-26 08:28N 10°17' W 075°33'0 0.0
2018-Jan-26 07:55N 10°17' W 075°33'0 0.0
2018-Jan-26 07:28N 10°17' W 075°33'0 0.0
2018-Jan-26 06:58N 10°17' W 075°33'0 0.0
2018-Jan-26 06:28N 10°17' W 075°33'0 0.0
2018-Jan-26 05:58N 10°17' W 075°33'0 0.0
2018-Jan-26 05:28N 10°17' W 075°33'0 0.0
2018-Jan-26 04:55N 10°17' W 075°33'0 0.0
2018-Jan-26 04:19N 10°17' W 075°33'0 0.0
2018-Jan-26 03:55N 10°17' W 075°33'0 0.0
2018-Jan-26 03:25N 10°17' W 075°33'0 0.0
2018-Jan-26 02:55N 10°17' W 075°33'0 0.0
2018-Jan-26 02:28N 10°17' W 075°33'0 0.0
2018-Jan-26 01:55N 10°17' W 075°33'0 0.0
2018-Jan-26 01:28N 10°17' W 075°33'0 0.0
2018-Jan-26 00:58N 10°17' W 075°33'0 0.0
2018-Jan-26 00:28N 10°17' W 075°33'0 0.0
2018-Jan-25 23:58N 10°17' W 075°33'0 0.0
2018-Jan-25 23:28N 10°17' W 075°33'0 0.0
2018-Jan-25 22:58N 10°17' W 075°33'0 0.0
2018-Jan-25 22:28N 10°17' W 075°33'0 0.0
2018-Jan-25 21:58N 10°17' W 075°33'0 0.0
2018-Jan-25 21:28N 10°17' W 075°33'0 0.0
2018-Jan-25 20:58N 10°17' W 075°33'0 0.0
2018-Jan-25 20:28N 10°17' W 075°33'0 0.0
2018-Jan-25 19:58N 10°17' W 075°33'0 0.0
2018-Jan-25 19:25N 10°17' W 075°33'0 0.0
2018-Jan-25 18:55N 10°17' W 075°33'0 0.0
2018-Jan-25 18:25N 10°17' W 075°33'0 0.0
2018-Jan-25 17:55N 10°17' W 075°33'  
Track history (hours):
 
Tides and Currents Weather Stations Pressure Air Temp Water Temp Dewpoint Dewpoint Depression Visibility Wind Speed Wind Dir Waves Ship Positions

3 Oak

Last reported at 2018-Feb-03 18:06 UTC. Time now 2018-Feb-18 01:37 UTC.
Position N 30°10' W 093°20'.
Warning: this ship's position is 14 days out of date.

Length 125 m; draft 6.8 m.

Type: Cargo ship. MMSI: 538004672.

Date/timePositionNaut miles runAvg speedWind from/ knotsBaromVisibWave heightAir tempDewpointWater temp
2018-Feb-03 18:06N 30°10' W 093°20'0 0.0
2018-Feb-03 18:00N 30°10' W 093°20'0 0.0
2018-Feb-03 17:30N 30°10' W 093°20'0 0.0
2018-Feb-03 17:00N 30°10' W 093°20'0 0.0
2018-Feb-03 16:00N 30°10' W 093°20'0 0.0
2018-Feb-03 15:30N 30°09' W 093°20'0 0.0
2018-Feb-03 15:00N 30°10' W 093°20'0 0.0
2018-Feb-03 14:30N 30°10' W 093°20'0 0.0
2018-Feb-03 14:00N 30°10' W 093°20'0 0.0
2018-Feb-03 13:30N 30°10' W 093°20'0 0.0
2018-Feb-03 13:00N 30°10' W 093°20'0 0.0
2018-Feb-03 12:24N 30°10' W 093°20'0 0.0
2018-Feb-03 12:00N 30°10' W 093°20'0 0.0
2018-Feb-03 11:30N 30°10' W 093°20'0 0.0
2018-Feb-03 11:00N 30°10' W 093°20'0 0.0
2018-Feb-03 10:30N 30°10' W 093°20'0 0.0
2018-Feb-03 10:00N 30°10' W 093°20'0 0.0
2018-Feb-03 09:27N 30°09' W 093°20'0 0.0
2018-Feb-03 09:00N 30°10' W 093°20'0 0.0
2018-Feb-03 08:24N 30°10' W 093°20'0 0.0
2018-Feb-03 08:00N 30°10' W 093°20'0 0.0
2018-Feb-03 06:30N 30°10' W 093°20'0 0.0
2018-Feb-03 06:00N 30°10' W 093°20'0 0.0
2018-Feb-03 05:30N 30°10' W 093°20'0 0.0
2018-Feb-03 05:00N 30°10' W 093°20'0 0.0
2018-Feb-03 04:00N 30°10' W 093°20'0 0.0
2018-Feb-03 03:27N 30°10' W 093°20'0 0.0
2018-Feb-03 02:00N 30°10' W 093°20'0 0.0
2018-Feb-03 01:30N 30°10' W 093°20'0 0.0
2018-Feb-03 01:00N 30°10' W 093°20'0 0.0
2018-Feb-03 00:30N 30°09' W 093°20'1 2.3
2018-Feb-03 00:00N 30°08' W 093°20'3 5.4
2018-Feb-02 23:30N 30°06' W 093°20'4 7.0
2018-Feb-02 23:00N 30°02' W 093°20'3 6.4
2018-Feb-02 22:31N 29°59' W 093°20'4 7.8
2018-Feb-02 22:00N 29°55' W 093°20'4 8.5
2018-Feb-02 21:29N 29°51' W 093°21'4 8.8
2018-Feb-02 21:00N 29°46' W 093°21'72 2.0
2018-Feb-01 08:19N 28°40' W 093°52'1 1.5
2018-Feb-01 07:30N 28°39' W 093°50'3 5.4
2018-Feb-01 06:59N 28°37' W 093°48'3 5.4
2018-Feb-01 06:21N 28°34' W 093°46'2 5.1
2018-Feb-01 06:00N 28°33' W 093°45'2 3.4
2018-Feb-01 05:27N 28°31' W 093°43'0 0.7
2018-Feb-01 04:54N 28°31' W 093°43'0 0.6
2018-Feb-01 04:28N 28°31' W 093°43'2 2.1
2018-Feb-01 03:40N 28°31' W 093°41'2 2.6
2018-Feb-01 02:49N 28°32' W 093°39'0 0.5
2018-Feb-01 02:10N 28°32' W 093°39'0 0.4
2018-Feb-01 02:00N 28°32' W 093°39'0 0.1
2018-Feb-01 01:23N 28°32' W 093°39'0 0.2
2018-Feb-01 00:59N 28°32' W 093°39'2 3.2
2018-Feb-01 00:14N 28°33' W 093°37'3 6.6
2018-Jan-31 23:49N 28°34' W 093°34'1111.8
2018-Jan-31 22:55N 28°36' W 093°22'512.6
2018-Jan-31 22:30N 28°36' W 093°16'  
2018-Jan-27 03:46N 10°19' W 075°37'2 7.2
2018-Jan-27 03:28N 10°19' W 075°35'2 4.1
2018-Jan-27 03:00N 10°18' W 075°33'0 0.2
2018-Jan-27 02:31N 10°18' W 075°33'0 0.1
2018-Jan-27 02:00N 10°18' W 075°33'0 0.1
2018-Jan-27 01:30N 10°18' W 075°33'1 1.5
2018-Jan-27 01:00N 10°18' W 075°32'1 0.9
2018-Jan-27 00:25N 10°17' W 075°33'0 0.0
2018-Jan-26 23:55N 10°17' W 075°33'0 0.0
2018-Jan-26 23:25N 10°17' W 075°33'0 0.0
2018-Jan-26 22:55N 10°17' W 075°33'0 0.0
2018-Jan-26 22:28N 10°17' W 075°33'0 0.0
2018-Jan-26 21:58N 10°17' W 075°33'0 0.0
2018-Jan-26 21:25N 10°17' W 075°33'0 0.0
2018-Jan-26 20:55N 10°17' W 075°33'0 0.0
2018-Jan-26 20:25N 10°17' W 075°33'0 0.0
2018-Jan-26 19:58N 10°17' W 075°33'0 0.0
2018-Jan-26 19:28N 10°17' W 075°33'0 0.0
2018-Jan-26 18:58N 10°17' W 075°33'0 0.0
2018-Jan-26 18:28N 10°17' W 075°33'0 0.0
2018-Jan-26 17:58N 10°17' W 075°33'0 0.0
2018-Jan-26 16:43N 10°17' W 075°33'0 0.0
2018-Jan-26 16:28N 10°17' W 075°33'0 0.0
2018-Jan-26 15:58N 10°17' W 075°33'0 0.0
2018-Jan-26 15:28N 10°17' W 075°33'0 0.0
2018-Jan-26 14:55N 10°17' W 075°33'0 0.0
2018-Jan-26 14:28N 10°17' W 075°33'0 0.0
2018-Jan-26 13:55N 10°17' W 075°33'0 0.0
2018-Jan-26 13:25N 10°17' W 075°33'0 0.0
2018-Jan-26 12:55N 10°17' W 075°33'0 0.0
2018-Jan-26 12:25N 10°17' W 075°33'0 0.0
2018-Jan-26 11:58N 10°17' W 075°33'0 0.0
2018-Jan-26 11:25N 10°17' W 075°33'0 0.0
2018-Jan-26 10:58N 10°17' W 075°33'0 0.0
2018-Jan-26 10:28N 10°17' W 075°33'0 0.0
2018-Jan-26 09:58N 10°17' W 075°33'0 0.0
2018-Jan-26 09:28N 10°17' W 075°33'0 0.0
2018-Jan-26 08:58N 10°17' W 075°33'0 0.0
2018-Jan-26 08:28N 10°17' W 075°33'0 0.0
2018-Jan-26 07:55N 10°17' W 075°33'0 0.0
2018-Jan-26 07:28N 10°17' W 075°33'0 0.0
2018-Jan-26 06:58N 10°17' W 075°33'0 0.0
2018-Jan-26 06:28N 10°17' W 075°33'0 0.0
2018-Jan-26 05:58N 10°17' W 075°33'0 0.0
2018-Jan-26 05:28N 10°17' W 075°33'0 0.0
2018-Jan-26 04:55N 10°17' W 075°33'0 0.0
2018-Jan-26 04:19N 10°17' W 075°33'0 0.0
2018-Jan-26 03:55N 10°17' W 075°33'0 0.0
2018-Jan-26 03:25N 10°17' W 075°33'0 0.0
2018-Jan-26 02:55N 10°17' W 075°33'0 0.0
2018-Jan-26 02:28N 10°17' W 075°33'0 0.0
2018-Jan-26 01:55N 10°17' W 075°33'0 0.0
2018-Jan-26 01:28N 10°17' W 075°33'0 0.0
2018-Jan-26 00:58N 10°17' W 075°33'0 0.0
2018-Jan-26 00:28N 10°17' W 075°33'0 0.0
2018-Jan-25 23:58N 10°17' W 075°33'0 0.0
2018-Jan-25 23:28N 10°17' W 075°33'0 0.0
2018-Jan-25 22:58N 10°17' W 075°33'0 0.0
2018-Jan-25 22:28N 10°17' W 075°33'0 0.0
2018-Jan-25 21:58N 10°17' W 075°33'0 0.0
2018-Jan-25 21:28N 10°17' W 075°33'0 0.0
2018-Jan-25 20:58N 10°17' W 075°33'0 0.0
2018-Jan-25 20:28N 10°17' W 075°33'0 0.0
2018-Jan-25 19:58N 10°17' W 075°33'0 0.0
2018-Jan-25 19:25N 10°17' W 075°33'0 0.0
2018-Jan-25 18:55N 10°17' W 075°33'0 0.0
2018-Jan-25 18:25N 10°17' W 075°33'0 0.0
2018-Jan-25 17:55N 10°17' W 075°33'  

Dump ship's entire track history